sensor_id;sensor_type;location;lat;lon;timestamp;temperature;humidity
49148;DHT22;41980;45.550;12.070;2022-10-30T00:03:14;14.10;83.30
49148;DHT22;41980;45.550;12.070;2022-10-30T00:09:17;14.10;83.30
49148;DHT22;41980;45.550;12.070;2022-10-30T00:15:21;14.10;83.30
49148;DHT22;41980;45.550;12.070;2022-10-30T00:21:24;14.10;83.30
49148;DHT22;41980;45.550;12.070;2022-10-30T00:27:26;14.10;83.30
49148;DHT22;41980;45.550;12.070;2022-10-30T00:33:28;14.00;83.40
49148;DHT22;41980;45.550;12.070;2022-10-30T00:39:32;14.00;83.40
49148;DHT22;41980;45.550;12.070;2022-10-30T00:45:34;14.00;83.50
49148;DHT22;41980;45.550;12.070;2022-10-30T00:51:40;13.90;83.60
49148;DHT22;41980;45.550;12.070;2022-10-30T00:57:43;13.80;83.60
49148;DHT22;41980;45.550;12.070;2022-10-30T01:03:47;13.80;83.70
49148;DHT22;41980;45.550;12.070;2022-10-30T01:09:53;13.80;83.70
49148;DHT22;41980;45.550;12.070;2022-10-30T02:04:49;13.60;83.80
49148;DHT22;41980;45.550;12.070;2022-10-30T02:42:24;13.40;84.00
49148;DHT22;41980;45.550;12.070;2022-10-30T03:05:33;13.40;83.90
49148;DHT22;41980;45.550;12.070;2022-10-30T03:13:01;13.40;84.00
49148;DHT22;41980;45.550;12.070;2022-10-30T03:27:48;13.30;83.80
49148;DHT22;41980;45.550;12.070;2022-10-30T03:42:53;13.30;83.80
49148;DHT22;41980;45.550;12.070;2022-10-30T03:50:18;13.20;83.90
49148;DHT22;41980;45.550;12.070;2022-10-30T03:58:02;13.10;84.00
49148;DHT22;41980;45.550;12.070;2022-10-30T04:05:19;13.10;84.00
49148;DHT22;41980;45.550;12.070;2022-10-30T04:19:44;13.00;84.20
49148;DHT22;41980;45.550;12.070;2022-10-30T04:34:35;12.90;84.40
49148;DHT22;41980;45.550;12.070;2022-10-30T04:49:02;12.80;84.40
49148;DHT22;41980;45.550;12.070;2022-10-30T05:04:31;12.70;84.40
49148;DHT22;41980;45.550;12.070;2022-10-30T05:11:55;12.60;84.50
49148;DHT22;41980;45.550;12.070;2022-10-30T05:19:01;12.50;84.60
49148;DHT22;41980;45.550;12.070;2022-10-30T05:26:38;12.50;84.60
49148;DHT22;41980;45.550;12.070;2022-10-30T05:41:42;12.50;84.50
49148;DHT22;41980;45.550;12.070;2022-10-30T05:49:00;12.60;84.60
49148;DHT22;41980;45.550;12.070;2022-10-30T05:56:10;12.60;84.20
49148;DHT22;41980;45.550;12.070;2022-10-30T06:02:58;12.50;84.40
49148;DHT22;41980;45.550;12.070;2022-10-30T06:10:09;12.50;84.50
49148;DHT22;41980;45.550;12.070;2022-10-30T06:16:39;12.60;84.40
49148;DHT22;41980;45.550;12.070;2022-10-30T06:23:15;12.70;84.40
49148;DHT22;41980;45.550;12.070;2022-10-30T06:29:57;12.70;84.40
49148;DHT22;41980;45.550;12.070;2022-10-30T06:36:46;13.00;84.20
49148;DHT22;41980;45.550;12.070;2022-10-30T06:43:49;13.20;83.90
49148;DHT22;41980;45.550;12.070;2022-10-30T06:51:04;13.50;83.60
49148;DHT22;41980;45.550;12.070;2022-10-30T07:05:32;13.80;83.30
49148;DHT22;41980;45.550;12.070;2022-10-30T07:12:36;14.00;83.10
49148;DHT22;41980;45.550;12.070;2022-10-30T07:26:07;14.30;83.00
49148;DHT22;41980;45.550;12.070;2022-10-30T07:34:03;14.50;82.80
49148;DHT22;41980;45.550;12.070;2022-10-30T07:48:56;15.00;82.40
49148;DHT22;41980;45.550;12.070;2022-10-30T08:03:09;15.40;82.00
49148;DHT22;41980;45.550;12.070;2022-10-30T08:52:48;16.70;81.20
49148;DHT22;41980;45.550;12.070;2022-10-30T08:58:51;16.90;81.10
49148;DHT22;41980;45.550;12.070;2022-10-30T09:04:54;17.00;81.00
49148;DHT22;41980;45.550;12.070;2022-10-30T09:11:00;17.20;80.90
49148;DHT22;41980;45.550;12.070;2022-10-30T09:17:03;17.30;80.70
49148;DHT22;41980;45.550;12.070;2022-10-30T09:23:11;17.50;80.50
49148;DHT22;41980;45.550;12.070;2022-10-30T09:29:13;17.50;80.50
49148;DHT22;41980;45.550;12.070;2022-10-30T09:35:21;17.70;80.30
49148;DHT22;41980;45.550;12.070;2022-10-30T09:47:43;18.00;80.20
49148;DHT22;41980;45.550;12.070;2022-10-30T10:07:29;18.30;79.90
49148;DHT22;41980;45.550;12.070;2022-10-30T10:13:45;19.00;81.10
49148;DHT22;41980;45.550;12.070;2022-10-30T10:26:01;21.00;78.50
49148;DHT22;41980;45.550;12.070;2022-10-30T10:38:32;21.10;77.30
49148;DHT22;41980;45.550;12.070;2022-10-30T10:56:57;20.90;76.80
49148;DHT22;41980;45.550;12.070;2022-10-30T11:03:05;20.90;76.60
49148;DHT22;41980;45.550;12.070;2022-10-30T11:21:24;20.70;76.50
49148;DHT22;41980;45.550;12.070;2022-10-30T11:27:28;20.60;76.50
49148;DHT22;41980;45.550;12.070;2022-10-30T11:33:31;20.50;76.70
49148;DHT22;41980;45.550;12.070;2022-10-30T11:39:34;20.50;76.60
49148;DHT22;41980;45.550;12.070;2022-10-30T11:45:39;20.50;76.80
49148;DHT22;41980;45.550;12.070;2022-10-30T11:51:43;20.50;76.60
49148;DHT22;41980;45.550;12.070;2022-10-30T11:57:51;20.60;76.30
49148;DHT22;41980;45.550;12.070;2022-10-30T12:03:54;20.60;76.10
49148;DHT22;41980;45.550;12.070;2022-10-30T12:09:57;20.60;76.30
49148;DHT22;41980;45.550;12.070;2022-10-30T12:22:09;20.70;75.70
49148;DHT22;41980;45.550;12.070;2022-10-30T12:28:16;20.60;76.10
49148;DHT22;41980;45.550;12.070;2022-10-30T12:40:39;20.50;76.50
49148;DHT22;41980;45.550;12.070;2022-10-30T12:46:44;20.50;76.40
49148;DHT22;41980;45.550;12.070;2022-10-30T13:17:24;20.50;76.70
49148;DHT22;41980;45.550;12.070;2022-10-30T13:23:35;20.50;76.80
49148;DHT22;41980;45.550;12.070;2022-10-30T13:42:09;20.50;76.70
49148;DHT22;41980;45.550;12.070;2022-10-30T14:18:59;20.50;76.70
49148;DHT22;41980;45.550;12.070;2022-10-30T14:25:13;20.60;76.80
49148;DHT22;41980;45.550;12.070;2022-10-30T14:31:17;20.50;76.90
49148;DHT22;41980;45.550;12.070;2022-10-30T14:49:45;20.30;77.10
49148;DHT22;41980;45.550;12.070;2022-10-30T15:02:04;20.10;77.30
49148;DHT22;41980;45.550;12.070;2022-10-30T15:20:30;19.90;77.60
49148;DHT22;41980;45.550;12.070;2022-10-30T15:26:35;19.80;77.60
49148;DHT22;41980;45.550;12.070;2022-10-30T15:32:40;19.70;77.60
49148;DHT22;41980;45.550;12.070;2022-10-30T15:38:42;19.50;77.80
49148;DHT22;41980;45.550;12.070;2022-10-30T15:44:45;19.40;77.90
49148;DHT22;41980;45.550;12.070;2022-10-30T15:50:52;19.20;78.10
49148;DHT22;41980;45.550;12.070;2022-10-30T15:56:57;19.10;78.20
49148;DHT22;41980;45.550;12.070;2022-10-30T16:03:02;18.90;78.30
49148;DHT22;41980;45.550;12.070;2022-10-30T16:09:04;18.80;78.40
49148;DHT22;41980;45.550;12.070;2022-10-30T16:15:26;18.60;78.70
49148;DHT22;41980;45.550;12.070;2022-10-30T16:21:30;18.50;78.70
49148;DHT22;41980;45.550;12.070;2022-10-30T16:27:33;18.40;78.90
49148;DHT22;41980;45.550;12.070;2022-10-30T16:33:46;18.30;79.00
49148;DHT22;41980;45.550;12.070;2022-10-30T16:39:50;18.20;79.10
49148;DHT22;41980;45.550;12.070;2022-10-30T16:45:58;18.10;79.40
49148;DHT22;41980;45.550;12.070;2022-10-30T16:52:13;18.10;79.40
49148;DHT22;41980;45.550;12.070;2022-10-30T16:58:16;18.00;79.20
49148;DHT22;41980;45.550;12.070;2022-10-30T17:04:25;17.90;79.30
49148;DHT22;41980;45.550;12.070;2022-10-30T17:10:34;17.70;79.60
49148;DHT22;41980;45.550;12.070;2022-10-30T17:16:38;17.60;79.60
49148;DHT22;41980;45.550;12.070;2022-10-30T17:22:41;17.50;79.70
49148;DHT22;41980;45.550;12.070;2022-10-30T17:28:45;17.40;79.90
49148;DHT22;41980;45.550;12.070;2022-10-30T17:34:54;17.30;80.00
49148;DHT22;41980;45.550;12.070;2022-10-30T17:41:00;17.10;80.20
49148;DHT22;41980;45.550;12.070;2022-10-30T17:47:11;17.00;80.30
49148;DHT22;41980;45.550;12.070;2022-10-30T17:53:17;16.90;80.40
49148;DHT22;41980;45.550;12.070;2022-10-30T17:59:22;16.80;80.50
49148;DHT22;41980;45.550;12.070;2022-10-30T18:05:34;16.80;80.60
49148;DHT22;41980;45.550;12.070;2022-10-30T18:11:41;16.70;80.60
49148;DHT22;41980;45.550;12.070;2022-10-30T18:17:44;16.60;80.70
49148;DHT22;41980;45.550;12.070;2022-10-30T18:23:46;16.50;80.80
49148;DHT22;41980;45.550;12.070;2022-10-30T18:29:48;16.50;80.90
49148;DHT22;41980;45.550;12.070;2022-10-30T18:35:50;16.40;81.00
49148;DHT22;41980;45.550;12.070;2022-10-30T18:41:52;16.30;81.00
49148;DHT22;41980;45.550;12.070;2022-10-30T18:47:55;16.20;81.10
49148;DHT22;41980;45.550;12.070;2022-10-30T18:53:58;16.20;81.10
49148;DHT22;41980;45.550;12.070;2022-10-30T19:00:00;16.10;81.20
49148;DHT22;41980;45.550;12.070;2022-10-30T19:06:10;16.00;81.20
49148;DHT22;41980;45.550;12.070;2022-10-30T19:12:13;16.00;81.40
49148;DHT22;41980;45.550;12.070;2022-10-30T19:18:15;15.90;81.50
49148;DHT22;41980;45.550;12.070;2022-10-30T19:24:26;15.90;81.50
49148;DHT22;41980;45.550;12.070;2022-10-30T19:30:28;15.80;81.50
49148;DHT22;41980;45.550;12.070;2022-10-30T19:36:31;15.80;81.50
49148;DHT22;41980;45.550;12.070;2022-10-30T19:42:38;15.80;81.60
49148;DHT22;41980;45.550;12.070;2022-10-30T19:48:41;15.70;81.50
49148;DHT22;41980;45.550;12.070;2022-10-30T19:54:43;15.70;81.60
49148;DHT22;41980;45.550;12.070;2022-10-30T20:00:45;15.70;81.60
49148;DHT22;41980;45.550;12.070;2022-10-30T20:06:48;15.60;81.70
49148;DHT22;41980;45.550;12.070;2022-10-30T20:12:50;15.60;81.80
49148;DHT22;41980;45.550;12.070;2022-10-30T20:18:52;15.50;81.90
49148;DHT22;41980;45.550;12.070;2022-10-30T20:24:56;15.40;81.90
49148;DHT22;41980;45.550;12.070;2022-10-30T20:30:59;15.40;81.90
49148;DHT22;41980;45.550;12.070;2022-10-30T20:37:01;15.40;82.00
49148;DHT22;41980;45.550;12.070;2022-10-30T20:43:03;15.30;82.00
49148;DHT22;41980;45.550;12.070;2022-10-30T20:49:05;15.30;82.10
49148;DHT22;41980;45.550;12.070;2022-10-30T20:55:09;15.20;82.20
49148;DHT22;41980;45.550;12.070;2022-10-30T21:01:11;15.10;82.30
49148;DHT22;41980;45.550;12.070;2022-10-30T21:07:14;15.10;82.30
49148;DHT22;41980;45.550;12.070;2022-10-30T21:13:17;15.10;82.50
49148;DHT22;41980;45.550;12.070;2022-10-30T21:19:18;15.00;82.50
49148;DHT22;41980;45.550;12.070;2022-10-30T21:25:21;15.00;82.50
49148;DHT22;41980;45.550;12.070;2022-10-30T21:31:23;15.00;82.60
49148;DHT22;41980;45.550;12.070;2022-10-30T21:37:26;15.00;82.70
49148;DHT22;41980;45.550;12.070;2022-10-30T21:43:28;14.90;82.70
49148;DHT22;41980;45.550;12.070;2022-10-30T21:49:31;14.80;82.70
49148;DHT22;41980;45.550;12.070;2022-10-30T21:55:37;14.80;82.70
49148;DHT22;41980;45.550;12.070;2022-10-30T22:01:39;14.80;82.70
49148;DHT22;41980;45.550;12.070;2022-10-30T22:07:43;14.80;82.80
49148;DHT22;41980;45.550;12.070;2022-10-30T22:13:45;14.70;82.80
49148;DHT22;41980;45.550;12.070;2022-10-30T22:19:51;14.70;82.70
49148;DHT22;41980;45.550;12.070;2022-10-30T22:25:54;14.70;82.80
49148;DHT22;41980;45.550;12.070;2022-10-30T22:31:57;14.70;82.90
49148;DHT22;41980;45.550;12.070;2022-10-30T22:37:59;14.60;82.90
49148;DHT22;41980;45.550;12.070;2022-10-30T22:44:01;14.60;83.00
49148;DHT22;41980;45.550;12.070;2022-10-30T22:50:04;14.50;83.10
49148;DHT22;41980;45.550;12.070;2022-10-30T23:02:14;14.50;83.20
49148;DHT22;41980;45.550;12.070;2022-10-30T23:08:16;14.40;83.30
49148;DHT22;41980;45.550;12.070;2022-10-30T23:14:18;14.30;83.40
49148;DHT22;41980;45.550;12.070;2022-10-30T23:20:20;14.30;83.50
49148;DHT22;41980;45.550;12.070;2022-10-30T23:26:26;14.20;83.50
49148;DHT22;41980;45.550;12.070;2022-10-30T23:32:28;14.20;83.60
49148;DHT22;41980;45.550;12.070;2022-10-30T23:38:30;14.10;83.60
49148;DHT22;41980;45.550;12.070;2022-10-30T23:44:34;14.10;83.70
49148;DHT22;41980;45.550;12.070;2022-10-30T23:50:36;14.10;83.70
49148;DHT22;41980;45.550;12.070;2022-10-30T23:56:38;14.00;83.70
